Terminal Aerodrome Forecast
Issued by NWS

Home | Current Version | Previous Version | Text Only | Print | Product List | Glossary Off
Versions: 1 2 3 4 5 6 7 8 9 10 11 12 13 14 15 16 17 18 19 20 21

000
FTUS41 KCLE 262321
TAFFDY
TAF
KFDY 262321Z 2700/2724 05010G20KT P6SM OVC012
     FM270100 05010G20KT 6SM BR OVC025
     FM270500 05012KT 6SM HZ OVC015
     FM271200 06010KT 4SM HZ SCT015
     FM271400 04012KT P6SM BKN100
     FM271600 07010G20KT P6SM OVC035=

USA.gov is the U.S. government's official web portal to all federal, state and local government web resources and services.